createdAt,value
2018-07-03T00:01:59.735Z,2.20
2018-07-03T00:04:29.429Z,1.60
2018-07-03T00:06:59.141Z,2.07
2018-07-03T00:09:28.309Z,3.00
2018-07-03T00:11:58.167Z,2.13
2018-07-03T00:14:27.545Z,3.53
2018-07-03T00:17:02.447Z,1.80
2018-07-03T00:19:31.834Z,2.23
2018-07-03T00:22:01.330Z,1.53
2018-07-03T00:24:30.968Z,2.57
2018-07-03T00:27:00.615Z,2.50
2018-07-03T00:29:30.327Z,4.83
2018-07-03T00:31:59.667Z,1.90
2018-07-03T00:34:29.222Z,2.53
2018-07-03T00:36:58.696Z,2.80
2018-07-03T00:39:28.131Z,2.40
2018-07-03T00:41:57.742Z,2.57
2018-07-03T00:44:27.195Z,2.20
2018-07-03T00:46:56.580Z,2.87
2018-07-03T00:49:25.770Z,3.60
2018-07-03T00:51:55.272Z,2.90
2018-07-03T00:54:24.650Z,2.63
2018-07-03T00:56:53.873Z,2.30
2018-07-03T00:59:23.716Z,2.97
2018-07-03T01:01:53.142Z,2.50
2018-07-03T01:04:22.486Z,2.67
2018-07-03T01:06:51.676Z,3.87
2018-07-03T01:09:21.123Z,3.57
2018-07-03T01:11:50.540Z,3.43
2018-07-03T01:14:19.702Z,3.43
2018-07-03T01:16:48.880Z,3.30
2018-07-03T01:19:18.030Z,3.87
2018-07-03T01:21:47.237Z,3.60
2018-07-03T01:24:16.394Z,3.50
2018-07-03T01:26:45.552Z,3.93
2018-07-03T01:29:14.758Z,4.00
2018-07-03T01:31:44.134Z,3.70
2018-07-03T01:34:13.508Z,3.33
2018-07-03T01:36:42.972Z,3.83
2018-07-03T01:39:12.652Z,4.07
2018-07-03T01:41:42.173Z,3.57
2018-07-03T01:44:11.376Z,3.20
2018-07-03T01:46:40.595Z,3.90
2018-07-03T01:49:09.739Z,3.40
2018-07-03T01:51:39.166Z,3.00
2018-07-03T01:54:08.518Z,4.63
2018-07-03T01:56:37.766Z,3.47
2018-07-03T01:59:07.024Z,3.60
2018-07-03T02:01:36.216Z,4.10
2018-07-03T02:04:05.516Z,3.50
2018-07-03T02:06:34.722Z,2.80
2018-07-03T02:09:05.676Z,2.27
2018-07-03T02:11:34.848Z,2.67
2018-07-03T02:14:04.046Z,3.47
2018-07-03T02:16:33.248Z,3.93
2018-07-03T02:19:02.792Z,3.70
2018-07-03T02:21:32.339Z,4.73
2018-07-03T02:24:01.518Z,5.27
2018-07-03T02:26:31.030Z,3.87
2018-07-03T02:29:00.700Z,4.60
2018-07-03T02:31:30.372Z,4.60
2018-07-03T02:33:59.780Z,5.07
2018-07-03T02:36:29.213Z,5.97
2018-07-03T02:38:58.586Z,3.90
2018-07-03T02:41:27.772Z,4.07
2018-07-03T02:43:57.180Z,6.20
2018-07-03T02:46:26.564Z,4.93
2018-07-03T02:48:55.737Z,5.43
2018-07-03T02:51:24.931Z,6.40
2018-07-03T02:53:54.325Z,5.50
2018-07-03T02:56:23.966Z,5.10
2018-07-03T02:58:53.478Z,5.30
2018-07-03T03:01:22.654Z,5.10
2018-07-03T03:03:52.118Z,6.27
2018-07-03T03:06:21.723Z,6.30
2018-07-03T03:08:51.139Z,6.33
2018-07-03T03:11:23.118Z,5.53
2018-07-03T03:13:53.990Z,7.43
2018-07-03T03:16:23.156Z,6.50
2018-07-03T03:18:52.662Z,6.90
2018-07-03T03:21:22.033Z,7.07
2018-07-03T03:23:51.231Z,9.27
2018-07-03T03:26:20.384Z,10.10
2018-07-03T03:28:49.817Z,9.87
2018-07-03T03:31:19.186Z,11.20
2018-07-03T03:33:48.340Z,10.37
2018-07-03T03:36:17.817Z,10.80
2018-07-03T03:38:47.190Z,10.97
2018-07-03T03:41:17.190Z,13.50
2018-07-03T03:43:46.339Z,13.57
2018-07-03T03:46:15.543Z,11.33
2018-07-03T03:48:44.963Z,13.90
2018-07-03T03:51:14.406Z,11.70
2018-07-03T03:53:43.684Z,10.90
2018-07-03T03:56:12.819Z,11.30
2018-07-03T03:58:42.007Z,11.57
2018-07-03T04:01:11.171Z,10.23
2018-07-03T04:03:40.557Z,10.07
2018-07-03T04:06:09.977Z,10.40
2018-07-03T04:08:39.211Z,10.40
2018-07-03T04:11:08.745Z,11.30
2018-07-03T04:13:38.183Z,10.30
2018-07-03T04:16:07.376Z,12.43
2018-07-03T04:18:36.802Z,12.97
2018-07-03T04:21:07.531Z,12.00
2018-07-03T04:23:37.772Z,11.83
2018-07-03T04:26:06.927Z,11.87
2018-07-03T04:28:36.166Z,12.37
2018-07-03T04:31:05.361Z,11.60
2018-07-03T04:33:34.512Z,11.23
2018-07-03T04:36:03.754Z,11.03
2018-07-03T04:38:32.970Z,12.87
2018-07-03T04:41:02.437Z,10.73
2018-07-03T04:43:31.821Z,10.73
2018-07-03T04:46:01.221Z,10.10
2018-07-03T04:48:30.968Z,12.40
2018-07-03T04:51:00.371Z,10.13
2018-07-03T04:53:29.876Z,11.77
2018-07-03T04:55:59.216Z,9.90
2018-07-03T04:58:28.648Z,10.70
2018-07-03T05:00:58.272Z,8.33
2018-07-03T05:03:27.633Z,8.80
2018-07-03T05:05:57.064Z,9.10
2018-07-03T05:08:26.665Z,8.03
2018-07-03T05:10:56.067Z,8.73
2018-07-03T05:13:25.494Z,7.10
2018-07-03T05:15:54.864Z,6.90
2018-07-03T05:18:24.052Z,9.07
2018-07-03T05:20:53.286Z,7.30
2018-07-03T05:23:22.540Z,5.93
2018-07-03T05:25:51.961Z,9.50
2018-07-03T05:28:21.371Z,6.07
2018-07-03T05:30:50.680Z,6.33
2018-07-03T05:33:19.844Z,6.07
2018-07-03T05:35:49.023Z,5.80
2018-07-03T05:38:18.216Z,5.10
2018-07-03T05:40:47.784Z,7.03
2018-07-03T05:43:17.873Z,6.67
2018-07-03T05:45:47.547Z,4.77
2018-07-03T05:48:16.945Z,4.60
2018-07-03T05:50:46.358Z,3.50
2018-07-03T05:53:15.587Z,7.13
2018-07-03T05:55:44.789Z,5.20
2018-07-03T05:58:14.007Z,3.97
2018-07-03T06:00:43.205Z,3.60
2018-07-03T06:03:12.414Z,4.10
2018-07-03T06:05:41.599Z,4.30
2018-07-03T06:08:10.772Z,4.47
2018-07-03T06:10:40.163Z,3.70
2018-07-03T06:13:09.399Z,4.27
2018-07-03T06:15:39.132Z,3.10
2018-07-03T06:18:08.368Z,2.70
2018-07-03T06:20:38.035Z,3.43
2018-07-03T06:23:07.527Z,3.13
2018-07-03T06:25:37.060Z,4.23
2018-07-03T06:28:06.947Z,3.17
2018-07-03T06:30:37.390Z,5.63
2018-07-03T06:33:06.789Z,3.57
2018-07-03T06:35:36.531Z,4.13
2018-07-03T06:38:07.112Z,2.90
2018-07-03T06:40:36.576Z,3.63
2018-07-03T06:43:06.640Z,2.67
2018-07-03T06:45:36.261Z,2.57
2018-07-03T06:48:05.484Z,3.43
2018-07-03T06:50:34.760Z,1.80
2018-07-03T06:53:04.103Z,4.53
2018-07-03T06:55:33.486Z,2.13
2018-07-03T06:58:02.892Z,2.23
2018-07-03T07:00:32.281Z,1.37
2018-07-03T07:03:01.819Z,6.10
2018-07-03T07:05:31.543Z,3.10
2018-07-03T07:08:00.935Z,2.30
2018-07-03T07:10:30.419Z,3.10
2018-07-03T07:13:00.055Z,2.13
2018-07-03T07:15:30.559Z,2.47
2018-07-03T07:17:59.864Z,1.87
2018-07-03T07:20:29.013Z,2.03
2018-07-03T07:22:58.599Z,1.60
2018-07-03T07:25:28.031Z,3.47
2018-07-03T07:27:57.409Z,1.63
2018-07-03T07:30:27.397Z,2.23
2018-07-03T07:32:57.095Z,3.37
2018-07-03T07:35:26.662Z,5.50
2018-07-03T07:37:56.514Z,2.07
2018-07-03T07:40:26.104Z,1.47
2018-07-03T07:42:56.185Z,3.93
2018-07-03T07:45:26.025Z,3.27
2018-07-03T07:47:56.220Z,1.50
2018-07-03T07:50:25.493Z,3.03
2018-07-03T07:52:54.764Z,1.20
2018-07-03T07:55:24.215Z,2.87
2018-07-03T07:57:53.679Z,1.43
2018-07-03T08:00:22.957Z,0.77
2018-07-03T08:02:52.152Z,3.17
2018-07-03T08:05:22.485Z,1.37
2018-07-03T08:07:52.046Z,1.33
2018-07-03T08:10:21.669Z,1.80
2018-07-03T08:12:51.146Z,4.23
2018-07-03T08:15:20.747Z,1.30
2018-07-03T08:17:50.050Z,1.20
2018-07-03T08:20:19.514Z,0.90
2018-07-03T08:22:48.956Z,1.50
2018-07-03T08:25:18.248Z,1.53
2018-07-03T08:27:47.512Z,0.90
2018-07-03T08:30:17.170Z,2.53
2018-07-03T08:32:46.420Z,1.90
2018-07-03T08:35:15.752Z,1.83
2018-07-03T08:37:46.333Z,1.83
2018-07-03T08:40:16.224Z,2.20
2018-07-03T08:42:46.117Z,1.10
2018-07-03T08:45:17.639Z,1.17
2018-07-03T08:47:47.229Z,1.10
2018-07-03T08:50:16.606Z,3.33
2018-07-03T08:52:47.252Z,0.80
2018-07-03T08:55:17.071Z,1.67
2018-07-03T08:57:46.545Z,1.13
2018-07-03T09:00:15.834Z,1.30
2018-07-03T09:02:45.499Z,2.20
2018-07-03T09:05:15.218Z,1.00
2018-07-03T09:07:44.530Z,1.10
2018-07-03T09:10:14.152Z,2.93
2018-07-03T09:12:43.968Z,1.67
2018-07-03T09:15:13.474Z,0.90
2018-07-03T09:17:42.741Z,3.10
2018-07-03T09:20:12.058Z,4.00
2018-07-03T09:22:41.574Z,0.90
2018-07-03T09:25:11.119Z,2.20
2018-07-03T09:27:40.378Z,1.33
2018-07-03T09:30:10.486Z,0.87
2018-07-03T09:32:40.072Z,0.67
2018-07-03T09:35:10.150Z,0.90
2018-07-03T09:37:39.349Z,1.10
2018-07-03T09:40:08.823Z,0.80
2018-07-03T09:42:38.373Z,0.80
2018-07-03T09:45:07.896Z,0.73
2018-07-03T09:47:37.188Z,1.70
2018-07-03T09:50:07.232Z,1.10
2018-07-03T09:52:36.482Z,1.03
2018-07-03T09:55:05.701Z,3.70
2018-07-03T09:57:34.964Z,1.87
2018-07-03T10:00:04.883Z,1.33
2018-07-03T10:02:34.389Z,1.20
2018-07-03T10:05:04.270Z,1.90
2018-07-03T10:07:33.665Z,0.70
2018-07-03T10:10:03.013Z,0.83
2018-07-03T10:12:33.532Z,0.80
2018-07-03T10:15:03.058Z,1.53
2018-07-03T10:17:32.656Z,0.80
2018-07-03T10:20:02.191Z,0.93
2018-07-03T10:22:32.680Z,4.20
2018-07-03T10:25:02.156Z,1.43
2018-07-03T10:27:31.656Z,0.90
2018-07-03T10:30:01.006Z,1.00
2018-07-03T10:32:30.302Z,0.70
2018-07-03T10:35:00.388Z,1.20
2018-07-03T10:37:29.610Z,0.90
2018-07-03T10:39:59.263Z,1.30
2018-07-03T10:42:28.716Z,1.20
2018-07-03T10:44:58.054Z,2.70
2018-07-03T10:47:27.389Z,2.00
2018-07-03T10:49:57.000Z,1.63
2018-07-03T10:52:26.714Z,1.20
2018-07-03T10:54:56.406Z,0.70
2018-07-03T10:57:25.888Z,0.83
2018-07-03T10:59:55.332Z,2.63
2018-07-03T11:02:24.666Z,0.60
2018-07-03T11:04:53.928Z,0.83
2018-07-03T11:07:24.138Z,4.00
2018-07-03T11:09:53.494Z,2.70
2018-07-03T11:12:22.979Z,0.83
2018-07-03T11:14:53.899Z,1.43
2018-07-03T11:17:23.392Z,1.10
2018-07-03T11:19:52.739Z,0.70
2018-07-03T11:22:22.005Z,1.40
2018-07-03T11:24:51.628Z,0.60
2018-07-03T11:27:21.114Z,0.70
2018-07-03T11:29:50.402Z,0.60
2018-07-03T11:32:19.875Z,0.70
2018-07-03T11:34:49.660Z,0.70
2018-07-03T11:37:19.094Z,1.17
2018-07-03T11:39:49.850Z,0.60
2018-07-03T11:42:19.700Z,0.90
2018-07-03T11:44:49.464Z,1.57
2018-07-03T11:47:19.077Z,1.27
2018-07-03T11:49:49.082Z,0.70
2018-07-03T11:52:18.645Z,1.00
2018-07-03T11:54:48.330Z,1.43
2018-07-03T11:57:17.930Z,1.03
2018-07-03T11:59:47.663Z,1.30
2018-07-03T12:02:17.164Z,1.10
2018-07-03T12:04:46.934Z,2.30
2018-07-03T12:07:16.523Z,3.27
2018-07-03T12:09:46.466Z,3.03
2018-07-03T12:12:16.126Z,1.43
2018-07-03T12:14:45.418Z,2.27
2018-07-03T12:17:15.463Z,1.30
2018-07-03T12:19:45.339Z,1.40
2018-07-03T12:22:15.206Z,1.10
2018-07-03T12:24:44.635Z,4.40
2018-07-03T12:27:14.685Z,2.10
2018-07-03T12:29:44.805Z,3.33
2018-07-03T12:32:14.552Z,1.10
2018-07-03T12:34:44.566Z,3.12
2018-07-03T12:37:14.631Z,1.83
2018-07-03T12:39:45.035Z,3.20
2018-07-03T12:42:14.859Z,1.70
2018-07-03T12:44:45.344Z,2.10
2018-07-03T12:47:15.170Z,2.50
2018-07-03T12:49:45.176Z,1.93
2018-07-03T12:52:14.782Z,5.50
2018-07-03T12:54:44.432Z,6.87
2018-07-03T12:57:13.888Z,3.30
2018-07-03T12:59:43.438Z,2.27
2018-07-03T13:02:12.958Z,3.50
2018-07-03T13:04:42.584Z,1.30
2018-07-03T13:07:11.840Z,2.73
2018-07-03T13:09:41.541Z,3.43
2018-07-03T13:12:11.015Z,2.53
2018-07-03T13:14:40.708Z,3.33
2018-07-03T13:17:10.548Z,2.33
2018-07-03T13:19:40.553Z,3.40
2018-07-03T13:22:13.307Z,3.20
2018-07-03T13:24:44.044Z,2.83
2018-07-03T13:27:13.379Z,3.67
2018-07-03T13:29:43.491Z,2.37
2018-07-03T13:32:14.058Z,2.90
2018-07-03T13:34:43.418Z,3.47
2018-07-03T13:37:12.759Z,2.90
2018-07-03T13:39:42.273Z,2.47
2018-07-03T13:42:11.542Z,3.53
2018-07-03T13:44:41.030Z,2.43
2018-07-03T13:47:10.589Z,2.13
2018-07-03T13:49:39.825Z,3.17
2018-07-03T13:52:10.678Z,3.40
2018-07-03T13:54:40.392Z,2.37
2018-07-03T13:57:09.991Z,1.80
2018-07-03T13:59:39.572Z,4.37
2018-07-03T14:02:10.269Z,2.10
2018-07-03T14:04:41.150Z,2.43
2018-07-03T14:07:10.691Z,2.73
2018-07-03T14:09:40.138Z,2.50
2018-07-03T14:12:10.025Z,3.30
2018-07-03T14:14:39.572Z,2.60
2018-07-03T14:17:08.868Z,4.23
2018-07-03T14:19:39.252Z,3.63
2018-07-03T14:22:08.656Z,2.77
2018-07-03T14:24:38.612Z,2.47
2018-07-03T14:27:08.196Z,5.47
2018-07-03T14:29:37.439Z,2.00
2018-07-03T14:32:06.689Z,2.37
2018-07-03T14:34:36.108Z,2.30
2018-07-03T14:37:05.616Z,2.17
2018-07-03T14:39:35.077Z,7.33
2018-07-03T14:42:04.700Z,2.70
2018-07-03T14:44:33.992Z,2.97
2018-07-03T14:47:03.216Z,3.20
2018-07-03T14:49:32.636Z,2.67
2018-07-03T14:52:02.125Z,3.00
2018-07-03T14:54:31.301Z,2.47
2018-07-03T14:57:00.488Z,2.17
2018-07-03T14:59:29.684Z,4.90
2018-07-03T15:01:59.111Z,3.00
2018-07-03T15:04:28.501Z,1.97
2018-07-03T15:06:57.682Z,2.70
2018-07-03T15:09:27.686Z,3.43
2018-07-03T15:11:57.996Z,2.27
2018-07-03T15:14:27.638Z,2.53
2018-07-03T15:16:57.028Z,2.83
2018-07-03T15:19:31.822Z,5.47
2018-07-03T15:22:00.994Z,2.70
2018-07-03T15:24:30.244Z,3.50
2018-07-03T15:26:59.755Z,2.93
2018-07-03T15:29:29.594Z,3.10
2018-07-03T15:31:59.030Z,2.10
2018-07-03T15:34:28.299Z,2.30
2018-07-03T15:36:57.486Z,2.27
2018-07-03T15:39:26.940Z,1.83
2018-07-03T15:41:56.343Z,1.60
2018-07-03T15:44:31.387Z,2.63
2018-07-03T15:47:00.581Z,3.00
2018-07-03T15:49:30.116Z,4.07
2018-07-03T15:51:59.537Z,3.03
2018-07-03T15:54:28.701Z,4.00
2018-07-03T15:56:58.783Z,2.50
2018-07-03T15:59:27.990Z,3.63
2018-07-03T16:01:57.412Z,1.70
2018-07-03T16:05:01.038Z,3.07
2018-07-03T16:07:41.776Z,3.00
2018-07-03T16:10:11.458Z,5.13
2018-07-03T16:12:41.616Z,3.00
2018-07-03T16:15:10.811Z,2.17
2018-07-03T16:17:40.028Z,2.40
2018-07-03T16:20:14.788Z,3.27
2018-07-03T16:22:44.477Z,3.27
2018-07-03T16:25:14.310Z,2.40
2018-07-03T16:27:43.440Z,3.27
2018-07-03T16:30:12.623Z,3.50
2018-07-03T16:32:42.172Z,2.07
2018-07-03T16:35:11.803Z,3.10
2018-07-03T16:37:41.401Z,4.63
2018-07-03T16:40:10.875Z,2.13
2018-07-03T16:42:40.098Z,4.80
2018-07-03T16:45:09.395Z,2.93
2018-07-03T16:47:38.621Z,2.40
2018-07-03T16:50:07.797Z,4.10
2018-07-03T16:52:37.051Z,3.10
2018-07-03T16:55:06.491Z,3.97
2018-07-03T16:57:36.503Z,2.87
2018-07-03T17:00:05.914Z,1.83
2018-07-03T17:02:35.376Z,3.63
2018-07-03T17:05:04.891Z,2.30
2018-07-03T17:07:34.413Z,4.37
2018-07-03T17:10:03.732Z,1.63
2018-07-03T17:12:32.972Z,2.00
2018-07-03T17:15:02.148Z,2.20
2018-07-03T17:17:31.364Z,1.97
2018-07-03T17:20:00.555Z,2.73
2018-07-03T17:22:30.029Z,1.73
2018-07-03T17:24:59.432Z,4.53
2018-07-03T17:27:28.608Z,3.83
2018-07-03T17:29:58.153Z,2.57
2018-07-03T17:32:27.612Z,4.30
2018-07-03T17:34:56.827Z,3.70
2018-07-03T17:37:26.270Z,5.73
2018-07-03T17:40:01.159Z,3.03
2018-07-03T17:43:01.119Z,2.23
2018-07-03T17:45:37.506Z,4.80
2018-07-03T17:48:08.011Z,3.13
2018-07-03T17:50:37.593Z,6.50
2018-07-03T17:53:07.447Z,3.10
2018-07-03T17:55:37.045Z,3.93
2018-07-03T17:58:06.483Z,4.47
2018-07-03T18:00:35.665Z,4.67
2018-07-03T18:03:04.876Z,4.33
2018-07-03T18:05:35.029Z,3.97
2018-07-03T18:08:04.263Z,2.20
2018-07-03T18:10:33.750Z,3.73
2018-07-03T18:13:03.509Z,3.50
2018-07-03T18:15:32.925Z,3.00
2018-07-03T18:18:02.126Z,2.10
2018-07-03T18:20:31.350Z,3.53
2018-07-03T18:23:00.557Z,2.30
2018-07-03T18:25:29.793Z,3.70
2018-07-03T18:27:58.984Z,3.00
2018-07-03T18:30:28.369Z,4.50
2018-07-03T18:32:57.824Z,4.50
2018-07-03T18:35:27.066Z,4.57
2018-07-03T18:37:56.502Z,6.30
2018-07-03T18:40:26.223Z,5.33
2018-07-03T18:42:56.021Z,2.40
2018-07-03T18:45:25.417Z,3.90
2018-07-03T18:47:54.871Z,4.10
2018-07-03T18:50:24.300Z,2.83
2018-07-03T18:52:53.677Z,6.60
2018-07-03T18:55:22.881Z,3.00
2018-07-03T18:57:52.070Z,4.27
2018-07-03T19:00:21.324Z,3.33
2018-07-03T19:02:50.486Z,2.77
2018-07-03T19:05:19.711Z,2.27
2018-07-03T19:07:48.976Z,11.73
2018-07-03T19:10:18.199Z,4.47
2018-07-03T19:12:47.355Z,3.73
2018-07-03T19:15:16.516Z,4.87
2018-07-03T19:17:45.960Z,2.27
2018-07-03T19:20:16.012Z,3.50
2018-07-03T19:22:45.711Z,2.47
2018-07-03T19:25:15.386Z,3.17
2018-07-03T19:27:44.877Z,3.27
2018-07-03T19:30:14.095Z,4.12
2018-07-03T19:32:43.641Z,2.93
2018-07-03T19:35:13.050Z,5.08
2018-07-03T19:37:42.337Z,3.27
2018-07-03T19:40:11.557Z,6.50
2018-07-03T19:42:50.179Z,4.90
2018-07-03T19:45:19.381Z,14.23
2018-07-03T19:47:48.598Z,7.70
2018-07-03T19:50:17.861Z,4.07
2018-07-03T19:52:47.019Z,3.43
2018-07-03T19:55:16.207Z,2.90
2018-07-03T19:57:45.619Z,4.33
2018-07-03T20:00:15.352Z,4.13
2018-07-03T20:02:44.764Z,4.13
2018-07-03T20:05:14.187Z,6.57
2018-07-03T20:07:43.583Z,5.77
2018-07-03T20:10:12.782Z,5.53
2018-07-03T20:12:41.946Z,2.80
2018-07-03T20:15:11.416Z,3.33
2018-07-03T20:17:40.813Z,3.20
2018-07-03T20:20:10.034Z,4.60
2018-07-03T20:22:39.190Z,6.20
2018-07-03T20:25:09.042Z,9.00
2018-07-03T20:27:38.202Z,6.63
2018-07-03T20:30:07.414Z,3.90
2018-07-03T20:32:36.641Z,4.57
2018-07-03T20:35:06.124Z,9.10
2018-07-03T20:37:39.984Z,3.73
2018-07-03T20:40:09.412Z,5.27
2018-07-03T20:42:39.146Z,2.77
2018-07-03T20:45:08.539Z,3.27
2018-07-03T20:47:38.030Z,4.70
2018-07-03T20:50:07.430Z,4.50
2018-07-03T20:52:36.605Z,5.07
2018-07-03T20:55:06.131Z,5.57
2018-07-03T20:57:35.367Z,7.07
2018-07-03T21:00:05.909Z,5.27
2018-07-03T21:02:35.561Z,3.33
2018-07-03T21:05:05.186Z,9.43
2018-07-03T21:07:35.020Z,6.90
2018-07-03T21:10:04.795Z,4.27
2018-07-03T21:12:34.539Z,3.57
2018-07-03T21:15:04.184Z,3.37
2018-07-03T21:17:33.589Z,4.47
2018-07-03T21:20:03.043Z,8.17
2018-07-03T21:22:32.424Z,2.57
2018-07-03T21:25:01.869Z,2.50
2018-07-03T21:27:31.357Z,3.97
2018-07-03T21:30:00.534Z,3.50
2018-07-03T21:32:29.700Z,5.20
2018-07-03T21:34:58.885Z,4.70
2018-07-03T21:37:28.579Z,4.20
2018-07-03T21:39:58.016Z,5.97
2018-07-03T21:42:27.695Z,5.23
2018-07-03T21:44:57.095Z,2.37
2018-07-03T21:47:26.291Z,3.57
2018-07-03T21:49:57.784Z,3.50
2018-07-03T21:52:27.363Z,4.00
2018-07-03T21:54:56.799Z,5.27
2018-07-03T21:57:26.233Z,7.07
2018-07-03T21:59:55.908Z,4.83
2018-07-03T22:02:25.531Z,3.40
2018-07-03T22:04:55.009Z,4.17
2018-07-03T22:07:24.177Z,3.67
2018-07-03T22:09:53.392Z,3.20
2018-07-03T22:12:22.799Z,2.83
2018-07-03T22:14:52.543Z,3.10
2018-07-03T22:17:22.967Z,4.87
2018-07-03T22:19:52.195Z,2.60
2018-07-03T22:22:21.465Z,6.20
2018-07-03T22:24:50.977Z,6.23
2018-07-03T22:27:20.438Z,3.30
2018-07-03T22:29:49.768Z,5.30
2018-07-03T22:32:19.173Z,4.70
2018-07-03T22:34:48.681Z,4.20
2018-07-03T22:37:18.077Z,4.30
2018-07-03T22:39:47.345Z,3.60
2018-07-03T22:42:16.675Z,2.73
2018-07-03T22:44:46.353Z,4.93
2018-07-03T22:47:15.773Z,5.07
2018-07-03T22:49:44.897Z,3.03
2018-07-03T22:52:14.361Z,3.40
2018-07-03T22:54:43.737Z,3.70
2018-07-03T22:57:12.923Z,3.33
2018-07-03T22:59:42.177Z,3.10
2018-07-03T23:02:11.341Z,2.67
2018-07-03T23:04:40.781Z,3.77
2018-07-03T23:07:10.219Z,3.03
2018-07-03T23:09:39.419Z,3.87
2018-07-03T23:12:12.925Z,3.20
2018-07-03T23:14:42.361Z,2.97
2018-07-03T23:17:11.777Z,4.90
2018-07-03T23:19:41.189Z,4.80
2018-07-03T23:22:10.681Z,4.23
2018-07-03T23:24:40.159Z,2.77
2018-07-03T23:27:09.655Z,8.20
2018-07-03T23:29:39.109Z,5.93
2018-07-03T23:32:09.046Z,5.50
2018-07-03T23:34:38.307Z,3.07
2018-07-03T23:37:07.647Z,5.70
2018-07-03T23:39:37.131Z,10.33
2018-07-03T23:42:06.801Z,4.00
2018-07-03T23:44:36.437Z,3.63
2018-07-03T23:47:11.535Z,4.10
2018-07-03T23:49:46.323Z,4.40
2018-07-03T23:52:22.194Z,4.53
2018-07-03T23:54:57.097Z,4.07
2018-07-03T23:57:32.015Z,7.70
